sensor_id;sensor_type;location;lat;lon;timestamp;P1;durP1;ratioP1;P2;durP2;ratioP2
58990;SDS011;44781;53.444;14.476;2023-07-31T00:01:32;5.00;;;1.60;;
58990;SDS011;44781;53.444;14.476;2023-07-31T00:04:27;5.40;;;1.60;;
58990;SDS011;44781;53.444;14.476;2023-07-31T00:07:10;4.10;;;1.40;;
58990;SDS011;44781;53.444;14.476;2023-07-31T00:10:02;4.70;;;1.60;;
58990;SDS011;44781;53.444;14.476;2023-07-31T00:12:46;5.20;;;1.80;;
58990;SDS011;44781;53.444;14.476;2023-07-31T00:15:36;4.10;;;1.60;;
58990;SDS011;44781;53.444;14.476;2023-07-31T00:18:03;4.10;;;1.50;;
58990;SDS011;44781;53.444;14.476;2023-07-31T00:20:30;5.00;;;1.80;;
58990;SDS011;44781;53.444;14.476;2023-07-31T00:22:57;4.20;;;1.70;;
58990;SDS011;44781;53.444;14.476;2023-07-31T00:25:24;2.70;;;1.50;;
58990;SDS011;44781;53.444;14.476;2023-07-31T00:27:51;5.30;;;1.70;;
58990;SDS011;44781;53.444;14.476;2023-07-31T00:30:18;3.40;;;2.20;;
58990;SDS011;44781;53.444;14.476;2023-07-31T00:32:45;6.50;;;1.70;;
58990;SDS011;44781;53.444;14.476;2023-07-31T00:35:12;4.40;;;1.70;;
58990;SDS011;44781;53.444;14.476;2023-07-31T00:37:38;4.80;;;1.90;;
58990;SDS011;44781;53.444;14.476;2023-07-31T00:40:06;5.20;;;1.60;;
58990;SDS011;44781;53.444;14.476;2023-07-31T00:42:33;3.40;;;1.70;;
58990;SDS011;44781;53.444;14.476;2023-07-31T00:45:00;3.20;;;1.70;;
58990;SDS011;44781;53.444;14.476;2023-07-31T00:47:27;5.50;;;1.70;;
58990;SDS011;44781;53.444;14.476;2023-07-31T00:49:54;5.60;;;1.70;;
58990;SDS011;44781;53.444;14.476;2023-07-31T00:52:21;4.50;;;1.90;;
58990;SDS011;44781;53.444;14.476;2023-07-31T00:54:48;4.90;;;1.80;;
58990;SDS011;44781;53.444;14.476;2023-07-31T00:57:15;4.10;;;1.50;;
58990;SDS011;44781;53.444;14.476;2023-07-31T00:59:42;4.10;;;1.90;;
58990;SDS011;44781;53.444;14.476;2023-07-31T01:02:10;4.30;;;1.70;;
58990;SDS011;44781;53.444;14.476;2023-07-31T01:04:39;5.60;;;1.90;;
58990;SDS011;44781;53.444;14.476;2023-07-31T01:07:11;4.90;;;1.70;;
58990;SDS011;44781;53.444;14.476;2023-07-31T01:10:08;5.90;;;2.10;;
58990;SDS011;44781;53.444;14.476;2023-07-31T01:12:41;3.70;;;1.60;;
58990;SDS011;44781;53.444;14.476;2023-07-31T01:15:09;4.50;;;1.60;;
58990;SDS011;44781;53.444;14.476;2023-07-31T01:17:46;4.90;;;1.50;;
58990;SDS011;44781;53.444;14.476;2023-07-31T01:20:26;3.60;;;1.50;;
58990;SDS011;44781;53.444;14.476;2023-07-31T01:28:56;5.40;;;1.60;;
58990;SDS011;44781;53.444;14.476;2023-07-31T01:31:37;6.90;;;1.80;;
58990;SDS011;44781;53.444;14.476;2023-07-31T01:34:07;5.30;;;2.30;;
58990;SDS011;44781;53.444;14.476;2023-07-31T01:36:36;4.00;;;1.70;;
58990;SDS011;44781;53.444;14.476;2023-07-31T01:39:03;4.30;;;1.70;;
58990;SDS011;44781;53.444;14.476;2023-07-31T01:41:30;5.70;;;1.60;;
58990;SDS011;44781;53.444;14.476;2023-07-31T01:43:57;4.00;;;1.70;;
58990;SDS011;44781;53.444;14.476;2023-07-31T01:46:24;4.40;;;1.80;;
58990;SDS011;44781;53.444;14.476;2023-07-31T01:48:51;4.50;;;1.80;;
58990;SDS011;44781;53.444;14.476;2023-07-31T01:51:18;4.80;;;1.60;;
58990;SDS011;44781;53.444;14.476;2023-07-31T01:53:45;5.30;;;2.00;;
58990;SDS011;44781;53.444;14.476;2023-07-31T01:56:12;3.60;;;1.70;;
58990;SDS011;44781;53.444;14.476;2023-07-31T01:58:39;4.80;;;1.80;;
58990;SDS011;44781;53.444;14.476;2023-07-31T02:01:06;6.00;;;1.90;;
58990;SDS011;44781;53.444;14.476;2023-07-31T02:03:34;3.90;;;1.60;;
58990;SDS011;44781;53.444;14.476;2023-07-31T02:06:02;4.50;;;1.50;;
58990;SDS011;44781;53.444;14.476;2023-07-31T02:08:29;5.70;;;1.70;;
58990;SDS011;44781;53.444;14.476;2023-07-31T02:10:56;3.70;;;1.40;;
58990;SDS011;44781;53.444;14.476;2023-07-31T02:13:23;5.00;;;1.70;;
58990;SDS011;44781;53.444;14.476;2023-07-31T02:15:50;4.90;;;1.50;;
58990;SDS011;44781;53.444;14.476;2023-07-31T02:18:20;3.50;;;1.60;;
58990;SDS011;44781;53.444;14.476;2023-07-31T02:20:50;4.70;;;1.90;;
58990;SDS011;44781;53.444;14.476;2023-07-31T02:23:18;3.80;;;1.60;;
58990;SDS011;44781;53.444;14.476;2023-07-31T02:25:45;4.80;;;1.70;;
58990;SDS011;44781;53.444;14.476;2023-07-31T02:28:12;3.90;;;1.50;;
58990;SDS011;44781;53.444;14.476;2023-07-31T02:30:45;4.10;;;1.50;;
58990;SDS011;44781;53.444;14.476;2023-07-31T02:33:35;3.90;;;1.70;;
58990;SDS011;44781;53.444;14.476;2023-07-31T02:36:25;3.40;;;1.50;;
58990;SDS011;44781;53.444;14.476;2023-07-31T02:41:20;3.40;;;1.50;;
58990;SDS011;44781;53.444;14.476;2023-07-31T02:43:47;4.30;;;2.00;;
58990;SDS011;44781;53.444;14.476;2023-07-31T02:46:13;5.90;;;1.80;;
58990;SDS011;44781;53.444;14.476;2023-07-31T02:48:41;4.90;;;1.60;;
58990;SDS011;44781;53.444;14.476;2023-07-31T02:51:08;4.40;;;2.10;;
58990;SDS011;44781;53.444;14.476;2023-07-31T02:53:34;3.30;;;1.50;;
58990;SDS011;44781;53.444;14.476;2023-07-31T02:56:01;3.90;;;1.70;;
58990;SDS011;44781;53.444;14.476;2023-07-31T02:58:28;3.90;;;1.60;;
58990;SDS011;44781;53.444;14.476;2023-07-31T03:00:55;3.80;;;1.60;;
58990;SDS011;44781;53.444;14.476;2023-07-31T03:03:25;3.50;;;1.60;;
58990;SDS011;44781;53.444;14.476;2023-07-31T03:05:52;5.20;;;1.60;;
58990;SDS011;44781;53.444;14.476;2023-07-31T03:08:21;4.30;;;1.40;;
58990;SDS011;44781;53.444;14.476;2023-07-31T03:10:49;5.00;;;1.90;;
58990;SDS011;44781;53.444;14.476;2023-07-31T03:13:16;2.90;;;1.40;;
58990;SDS011;44781;53.444;14.476;2023-07-31T03:15:43;7.40;;;2.00;;
58990;SDS011;44781;53.444;14.476;2023-07-31T03:18:10;4.10;;;1.70;;
58990;SDS011;44781;53.444;14.476;2023-07-31T03:20:37;3.60;;;1.70;;
58990;SDS011;44781;53.444;14.476;2023-07-31T03:25:35;5.20;;;1.80;;
58990;SDS011;44781;53.444;14.476;2023-07-31T03:28:02;5.00;;;1.60;;
58990;SDS011;44781;53.444;14.476;2023-07-31T03:30:30;5.20;;;1.90;;
58990;SDS011;44781;53.444;14.476;2023-07-31T03:32:57;5.30;;;2.00;;
58990;SDS011;44781;53.444;14.476;2023-07-31T03:35:24;6.90;;;1.80;;
58990;SDS011;44781;53.444;14.476;2023-07-31T03:37:51;5.40;;;1.90;;
58990;SDS011;44781;53.444;14.476;2023-07-31T03:40:18;3.10;;;1.50;;
58990;SDS011;44781;53.444;14.476;2023-07-31T03:42:45;4.70;;;1.80;;
58990;SDS011;44781;53.444;14.476;2023-07-31T03:45:12;3.00;;;1.40;;
58990;SDS011;44781;53.444;14.476;2023-07-31T03:47:39;4.90;;;1.90;;
58990;SDS011;44781;53.444;14.476;2023-07-31T03:50:06;4.60;;;1.50;;
58990;SDS011;44781;53.444;14.476;2023-07-31T03:52:33;3.50;;;1.50;;
58990;SDS011;44781;53.444;14.476;2023-07-31T03:55:00;4.70;;;1.70;;
58990;SDS011;44781;53.444;14.476;2023-07-31T03:57:27;5.50;;;1.70;;
58990;SDS011;44781;53.444;14.476;2023-07-31T03:59:54;5.30;;;1.70;;
58990;SDS011;44781;53.444;14.476;2023-07-31T04:02:20;3.00;;;1.70;;
58990;SDS011;44781;53.444;14.476;2023-07-31T04:04:47;4.40;;;1.50;;
58990;SDS011;44781;53.444;14.476;2023-07-31T04:07:14;4.50;;;1.70;;
58990;SDS011;44781;53.444;14.476;2023-07-31T04:09:41;3.60;;;1.60;;
58990;SDS011;44781;53.444;14.476;2023-07-31T04:12:08;3.90;;;1.30;;
58990;SDS011;44781;53.444;14.476;2023-07-31T04:14:35;5.00;;;1.60;;
58990;SDS011;44781;53.444;14.476;2023-07-31T04:17:02;4.90;;;1.60;;
58990;SDS011;44781;53.444;14.476;2023-07-31T04:19:29;3.00;;;1.20;;
58990;SDS011;44781;53.444;14.476;2023-07-31T04:21:56;5.20;;;1.80;;
58990;SDS011;44781;53.444;14.476;2023-07-31T04:24:22;3.00;;;1.50;;
58990;SDS011;44781;53.444;14.476;2023-07-31T04:26:52;4.50;;;1.50;;
58990;SDS011;44781;53.444;14.476;2023-07-31T04:29:20;4.40;;;1.40;;
58990;SDS011;44781;53.444;14.476;2023-07-31T04:31:47;5.40;;;1.70;;
58990;SDS011;44781;53.444;14.476;2023-07-31T04:34:14;4.70;;;1.80;;
58990;SDS011;44781;53.444;14.476;2023-07-31T04:36:41;4.30;;;1.80;;
58990;SDS011;44781;53.444;14.476;2023-07-31T04:39:08;5.00;;;1.30;;
58990;SDS011;44781;53.444;14.476;2023-07-31T04:41:38;3.90;;;1.40;;
58990;SDS011;44781;53.444;14.476;2023-07-31T04:44:05;6.00;;;1.90;;
58990;SDS011;44781;53.444;14.476;2023-07-31T04:46:32;4.90;;;1.60;;
58990;SDS011;44781;53.444;14.476;2023-07-31T04:48:58;5.60;;;1.60;;
58990;SDS011;44781;53.444;14.476;2023-07-31T04:51:25;4.40;;;1.50;;
58990;SDS011;44781;53.444;14.476;2023-07-31T04:53:52;5.10;;;1.90;;
58990;SDS011;44781;53.444;14.476;2023-07-31T04:56:19;4.30;;;1.50;;
58990;SDS011;44781;53.444;14.476;2023-07-31T04:58:46;4.70;;;1.90;;
58990;SDS011;44781;53.444;14.476;2023-07-31T05:01:13;4.20;;;1.70;;
58990;SDS011;44781;53.444;14.476;2023-07-31T05:03:40;7.30;;;2.00;;
58990;SDS011;44781;53.444;14.476;2023-07-31T05:06:06;3.00;;;1.70;;
58990;SDS011;44781;53.444;14.476;2023-07-31T05:08:36;4.70;;;1.50;;
58990;SDS011;44781;53.444;14.476;2023-07-31T05:11:03;5.40;;;2.00;;
58990;SDS011;44781;53.444;14.476;2023-07-31T05:13:30;4.10;;;1.50;;
58990;SDS011;44781;53.444;14.476;2023-07-31T05:15:56;6.20;;;1.90;;
58990;SDS011;44781;53.444;14.476;2023-07-31T05:18:23;6.70;;;1.70;;
58990;SDS011;44781;53.444;14.476;2023-07-31T05:20:50;5.40;;;1.70;;
58990;SDS011;44781;53.444;14.476;2023-07-31T05:23:17;4.20;;;1.60;;
58990;SDS011;44781;53.444;14.476;2023-07-31T05:25:43;4.00;;;1.80;;
58990;SDS011;44781;53.444;14.476;2023-07-31T05:28:11;4.80;;;1.60;;
58990;SDS011;44781;53.444;14.476;2023-07-31T05:30:39;4.20;;;1.50;;
58990;SDS011;44781;53.444;14.476;2023-07-31T05:33:05;4.00;;;1.80;;
58990;SDS011;44781;53.444;14.476;2023-07-31T05:35:32;3.20;;;1.40;;
58990;SDS011;44781;53.444;14.476;2023-07-31T05:37:59;4.90;;;1.60;;
58990;SDS011;44781;53.444;14.476;2023-07-31T05:40:26;3.20;;;1.50;;
58990;SDS011;44781;53.444;14.476;2023-07-31T05:42:53;7.10;;;2.00;;
58990;SDS011;44781;53.444;14.476;2023-07-31T05:45:20;5.00;;;1.80;;
58990;SDS011;44781;53.444;14.476;2023-07-31T05:47:47;4.40;;;1.90;;
58990;SDS011;44781;53.444;14.476;2023-07-31T05:50:14;5.60;;;2.30;;
58990;SDS011;44781;53.444;14.476;2023-07-31T05:52:41;7.10;;;1.90;;
58990;SDS011;44781;53.444;14.476;2023-07-31T05:55:09;4.60;;;1.80;;
58990;SDS011;44781;53.444;14.476;2023-07-31T05:57:36;5.20;;;1.50;;
58990;SDS011;44781;53.444;14.476;2023-07-31T06:00:03;4.90;;;1.60;;
58990;SDS011;44781;53.444;14.476;2023-07-31T06:02:31;4.80;;;1.70;;
58990;SDS011;44781;53.444;14.476;2023-07-31T06:05:03;4.00;;;1.50;;
58990;SDS011;44781;53.444;14.476;2023-07-31T06:07:32;4.60;;;1.70;;
58990;SDS011;44781;53.444;14.476;2023-07-31T06:09:59;4.00;;;1.40;;
58990;SDS011;44781;53.444;14.476;2023-07-31T06:12:32;3.80;;;1.50;;
58990;SDS011;44781;53.444;14.476;2023-07-31T06:14:59;3.10;;;1.60;;
58990;SDS011;44781;53.444;14.476;2023-07-31T06:17:26;7.00;;;2.00;;
58990;SDS011;44781;53.444;14.476;2023-07-31T06:19:53;5.40;;;1.50;;
58990;SDS011;44781;53.444;14.476;2023-07-31T06:22:20;5.90;;;1.40;;
58990;SDS011;44781;53.444;14.476;2023-07-31T06:24:47;4.00;;;1.50;;
58990;SDS011;44781;53.444;14.476;2023-07-31T06:27:14;4.00;;;1.40;;
58990;SDS011;44781;53.444;14.476;2023-07-31T06:29:43;4.60;;;1.80;;
58990;SDS011;44781;53.444;14.476;2023-07-31T06:32:10;4.60;;;1.60;;
58990;SDS011;44781;53.444;14.476;2023-07-31T06:34:40;5.30;;;1.50;;
58990;SDS011;44781;53.444;14.476;2023-07-31T06:37:07;5.20;;;1.50;;
58990;SDS011;44781;53.444;14.476;2023-07-31T06:39:34;2.90;;;1.40;;
58990;SDS011;44781;53.444;14.476;2023-07-31T06:42:01;4.70;;;1.70;;
58990;SDS011;44781;53.444;14.476;2023-07-31T06:44:28;3.60;;;1.30;;
58990;SDS011;44781;53.444;14.476;2023-07-31T06:47:02;3.70;;;1.60;;
58990;SDS011;44781;53.444;14.476;2023-07-31T06:49:29;4.50;;;1.60;;
58990;SDS011;44781;53.444;14.476;2023-07-31T06:51:56;5.80;;;2.10;;
58990;SDS011;44781;53.444;14.476;2023-07-31T06:54:24;3.70;;;1.70;;
58990;SDS011;44781;53.444;14.476;2023-07-31T06:56:51;4.20;;;1.60;;
58990;SDS011;44781;53.444;14.476;2023-07-31T06:59:18;4.90;;;1.60;;
58990;SDS011;44781;53.444;14.476;2023-07-31T07:01:45;5.90;;;1.80;;
58990;SDS011;44781;53.444;14.476;2023-07-31T07:04:11;3.60;;;1.80;;
58990;SDS011;44781;53.444;14.476;2023-07-31T07:06:39;4.70;;;1.70;;
58990;SDS011;44781;53.444;14.476;2023-07-31T07:09:06;5.70;;;1.80;;
58990;SDS011;44781;53.444;14.476;2023-07-31T07:11:33;5.40;;;2.10;;
58990;SDS011;44781;53.444;14.476;2023-07-31T07:14:00;6.60;;;1.90;;
58990;SDS011;44781;53.444;14.476;2023-07-31T07:16:28;5.00;;;1.60;;
58990;SDS011;44781;53.444;14.476;2023-07-31T07:18:55;4.60;;;1.80;;
58990;SDS011;44781;53.444;14.476;2023-07-31T07:21:24;5.70;;;2.00;;
58990;SDS011;44781;53.444;14.476;2023-07-31T07:23:51;5.00;;;1.80;;
58990;SDS011;44781;53.444;14.476;2023-07-31T07:26:18;4.40;;;1.70;;
58990;SDS011;44781;53.444;14.476;2023-07-31T07:28:44;5.90;;;2.10;;
58990;SDS011;44781;53.444;14.476;2023-07-31T07:31:12;3.90;;;1.60;;
58990;SDS011;44781;53.444;14.476;2023-07-31T07:33:39;3.40;;;1.50;;
58990;SDS011;44781;53.444;14.476;2023-07-31T07:36:06;4.40;;;1.70;;
58990;SDS011;44781;53.444;14.476;2023-07-31T07:38:36;3.80;;;1.90;;
58990;SDS011;44781;53.444;14.476;2023-07-31T07:41:03;3.50;;;1.50;;
58990;SDS011;44781;53.444;14.476;2023-07-31T07:43:30;4.30;;;1.80;;
58990;SDS011;44781;53.444;14.476;2023-07-31T07:45:57;4.60;;;1.70;;
58990;SDS011;44781;53.444;14.476;2023-07-31T07:48:24;4.80;;;2.00;;
58990;SDS011;44781;53.444;14.476;2023-07-31T07:50:52;3.60;;;1.60;;
58990;SDS011;44781;53.444;14.476;2023-07-31T07:53:19;4.30;;;1.60;;
58990;SDS011;44781;53.444;14.476;2023-07-31T07:55:46;5.10;;;1.70;;
58990;SDS011;44781;53.444;14.476;2023-07-31T07:58:13;5.40;;;1.50;;
58990;SDS011;44781;53.444;14.476;2023-07-31T08:00:40;3.90;;;1.90;;
58990;SDS011;44781;53.444;14.476;2023-07-31T08:03:07;4.20;;;1.70;;
58990;SDS011;44781;53.444;14.476;2023-07-31T08:05:34;4.90;;;1.80;;
58990;SDS011;44781;53.444;14.476;2023-07-31T08:08:01;4.40;;;1.70;;
58990;SDS011;44781;53.444;14.476;2023-07-31T08:10:28;2.90;;;1.50;;
58990;SDS011;44781;53.444;14.476;2023-07-31T08:12:55;3.80;;;1.90;;
58990;SDS011;44781;53.444;14.476;2023-07-31T08:15:21;3.70;;;1.40;;
58990;SDS011;44781;53.444;14.476;2023-07-31T08:17:48;3.60;;;1.60;;
58990;SDS011;44781;53.444;14.476;2023-07-31T08:20:15;4.10;;;1.90;;
58990;SDS011;44781;53.444;14.476;2023-07-31T08:22:42;3.90;;;1.60;;
58990;SDS011;44781;53.444;14.476;2023-07-31T08:25:09;4.70;;;1.70;;
58990;SDS011;44781;53.444;14.476;2023-07-31T08:27:37;5.20;;;1.60;;
58990;SDS011;44781;53.444;14.476;2023-07-31T08:30:04;3.40;;;1.40;;
58990;SDS011;44781;53.444;14.476;2023-07-31T08:32:32;4.30;;;1.50;;
58990;SDS011;44781;53.444;14.476;2023-07-31T08:34:59;5.80;;;1.80;;
58990;SDS011;44781;53.444;14.476;2023-07-31T08:37:26;3.90;;;1.60;;
58990;SDS011;44781;53.444;14.476;2023-07-31T08:39:53;5.60;;;1.50;;
58990;SDS011;44781;53.444;14.476;2023-07-31T08:42:21;4.50;;;1.60;;
58990;SDS011;44781;53.444;14.476;2023-07-31T08:44:48;4.50;;;1.50;;
58990;SDS011;44781;53.444;14.476;2023-07-31T08:47:16;2.80;;;1.60;;
58990;SDS011;44781;53.444;14.476;2023-07-31T08:49:43;3.90;;;1.50;;
58990;SDS011;44781;53.444;14.476;2023-07-31T08:52:12;3.10;;;1.50;;
58990;SDS011;44781;53.444;14.476;2023-07-31T08:54:42;4.20;;;1.50;;
58990;SDS011;44781;53.444;14.476;2023-07-31T08:57:10;3.40;;;1.50;;
58990;SDS011;44781;53.444;14.476;2023-07-31T08:59:38;4.40;;;1.80;;
58990;SDS011;44781;53.444;14.476;2023-07-31T09:02:07;4.40;;;1.60;;
58990;SDS011;44781;53.444;14.476;2023-07-31T09:04:35;4.30;;;1.50;;
58990;SDS011;44781;53.444;14.476;2023-07-31T09:07:02;4.00;;;1.60;;
58990;SDS011;44781;53.444;14.476;2023-07-31T09:09:30;3.50;;;1.60;;
58990;SDS011;44781;53.444;14.476;2023-07-31T09:12:00;3.70;;;1.50;;
58990;SDS011;44781;53.444;14.476;2023-07-31T09:14:31;5.20;;;1.50;;
58990;SDS011;44781;53.444;14.476;2023-07-31T09:16:59;3.20;;;1.20;;
58990;SDS011;44781;53.444;14.476;2023-07-31T09:19:27;4.00;;;1.50;;
58990;SDS011;44781;53.444;14.476;2023-07-31T09:22:06;4.00;;;1.40;;
58990;SDS011;44781;53.444;14.476;2023-07-31T09:24:34;4.50;;;1.80;;
58990;SDS011;44781;53.444;14.476;2023-07-31T09:27:01;4.90;;;1.40;;
58990;SDS011;44781;53.444;14.476;2023-07-31T09:29:28;3.70;;;1.60;;
58990;SDS011;44781;53.444;14.476;2023-07-31T09:31:56;3.70;;;1.60;;
58990;SDS011;44781;53.444;14.476;2023-07-31T09:34:30;2.90;;;1.30;;
58990;SDS011;44781;53.444;14.476;2023-07-31T09:37:07;4.20;;;1.60;;
58990;SDS011;44781;53.444;14.476;2023-07-31T09:39:45;3.50;;;1.50;;
58990;SDS011;44781;53.444;14.476;2023-07-31T09:42:13;4.10;;;1.70;;
58990;SDS011;44781;53.444;14.476;2023-07-31T09:44:40;4.70;;;1.70;;
58990;SDS011;44781;53.444;14.476;2023-07-31T09:47:20;6.00;;;1.60;;
58990;SDS011;44781;53.444;14.476;2023-07-31T09:49:56;2.10;;;1.10;;
58990;SDS011;44781;53.444;14.476;2023-07-31T09:52:25;3.70;;;1.50;;
58990;SDS011;44781;53.444;14.476;2023-07-31T09:54:53;2.00;;;1.30;;
58990;SDS011;44781;53.444;14.476;2023-07-31T09:57:21;4.10;;;1.70;;
58990;SDS011;44781;53.444;14.476;2023-07-31T09:59:49;3.10;;;1.40;;
58990;SDS011;44781;53.444;14.476;2023-07-31T10:02:22;2.70;;;1.30;;
58990;SDS011;44781;53.444;14.476;2023-07-31T10:04:49;2.40;;;1.40;;
58990;SDS011;44781;53.444;14.476;2023-07-31T10:07:17;3.60;;;1.50;;
58990;SDS011;44781;53.444;14.476;2023-07-31T10:09:46;3.60;;;1.40;;
58990;SDS011;44781;53.444;14.476;2023-07-31T10:12:14;2.80;;;1.30;;
58990;SDS011;44781;53.444;14.476;2023-07-31T10:14:45;5.10;;;1.70;;
58990;SDS011;44781;53.444;14.476;2023-07-31T10:17:15;3.10;;;1.30;;
58990;SDS011;44781;53.444;14.476;2023-07-31T10:19:44;4.90;;;1.70;;
58990;SDS011;44781;53.444;14.476;2023-07-31T10:22:11;2.80;;;1.20;;
58990;SDS011;44781;53.444;14.476;2023-07-31T10:24:39;3.00;;;1.20;;
58990;SDS011;44781;53.444;14.476;2023-07-31T10:27:09;3.30;;;1.30;;
58990;SDS011;44781;53.444;14.476;2023-07-31T10:29:37;2.30;;;1.20;;
58990;SDS011;44781;53.444;14.476;2023-07-31T10:32:06;4.00;;;1.30;;
58990;SDS011;44781;53.444;14.476;2023-07-31T10:34:37;2.80;;;1.20;;
58990;SDS011;44781;53.444;14.476;2023-07-31T10:39:58;4.00;;;1.50;;
58990;SDS011;44781;53.444;14.476;2023-07-31T10:42:36;2.70;;;1.30;;
58990;SDS011;44781;53.444;14.476;2023-07-31T10:45:42;3.20;;;1.60;;
58990;SDS011;44781;53.444;14.476;2023-07-31T10:48:13;2.10;;;1.30;;
58990;SDS011;44781;53.444;14.476;2023-07-31T10:50:50;3.60;;;1.40;;
58990;SDS011;44781;53.444;14.476;2023-07-31T10:53:25;3.00;;;1.60;;
58990;SDS011;44781;53.444;14.476;2023-07-31T10:56:00;4.40;;;1.50;;
58990;SDS011;44781;53.444;14.476;2023-07-31T10:58:28;4.10;;;1.40;;
58990;SDS011;44781;53.444;14.476;2023-07-31T11:00:55;4.20;;;1.20;;
58990;SDS011;44781;53.444;14.476;2023-07-31T11:03:25;2.60;;;1.10;;
58990;SDS011;44781;53.444;14.476;2023-07-31T11:08:31;1.80;;;1.10;;
58990;SDS011;44781;53.444;14.476;2023-07-31T11:13:28;1.60;;;1.20;;
58990;SDS011;44781;53.444;14.476;2023-07-31T11:16:00;1.80;;;0.90;;
58990;SDS011;44781;53.444;14.476;2023-07-31T11:18:27;1.40;;;1.00;;
58990;SDS011;44781;53.444;14.476;2023-07-31T11:20:54;2.60;;;1.20;;
58990;SDS011;44781;53.444;14.476;2023-07-31T11:23:21;2.30;;;1.20;;
58990;SDS011;44781;53.444;14.476;2023-07-31T11:25:49;2.40;;;1.30;;
58990;SDS011;44781;53.444;14.476;2023-07-31T11:28:17;2.80;;;1.20;;
58990;SDS011;44781;53.444;14.476;2023-07-31T11:30:48;2.40;;;1.30;;
58990;SDS011;44781;53.444;14.476;2023-07-31T11:33:16;2.50;;;1.10;;
58990;SDS011;44781;53.444;14.476;2023-07-31T11:35:47;4.20;;;1.50;;
58990;SDS011;44781;53.444;14.476;2023-07-31T11:38:22;2.90;;;1.50;;
58990;SDS011;44781;53.444;14.476;2023-07-31T11:40:52;5.00;;;2.30;;
58990;SDS011;44781;53.444;14.476;2023-07-31T11:43:21;4.20;;;2.40;;
58990;SDS011;44781;53.444;14.476;2023-07-31T11:45:49;5.10;;;2.10;;
58990;SDS011;44781;53.444;14.476;2023-07-31T11:48:21;3.40;;;2.10;;
58990;SDS011;44781;53.444;14.476;2023-07-31T11:50:50;4.50;;;2.00;;
58990;SDS011;44781;53.444;14.476;2023-07-31T11:53:23;3.60;;;1.60;;
58990;SDS011;44781;53.444;14.476;2023-07-31T11:55:55;4.40;;;1.90;;
58990;SDS011;44781;53.444;14.476;2023-07-31T11:58:27;3.60;;;1.80;;
58990;SDS011;44781;53.444;14.476;2023-07-31T12:00:56;2.70;;;1.80;;
58990;SDS011;44781;53.444;14.476;2023-07-31T12:03:24;3.20;;;2.10;;
58990;SDS011;44781;53.444;14.476;2023-07-31T12:05:53;3.50;;;2.10;;
58990;SDS011;44781;53.444;14.476;2023-07-31T12:08:36;5.10;;;2.10;;
58990;SDS011;44781;53.444;14.476;2023-07-31T12:11:03;4.50;;;2.40;;
58990;SDS011;44781;53.444;14.476;2023-07-31T12:13:37;3.60;;;2.40;;
58990;SDS011;44781;53.444;14.476;2023-07-31T12:16:11;3.90;;;2.30;;
58990;SDS011;44781;53.444;14.476;2023-07-31T12:18:41;4.00;;;2.20;;
58990;SDS011;44781;53.444;14.476;2023-07-31T12:21:13;2.70;;;1.80;;
58990;SDS011;44781;53.444;14.476;2023-07-31T12:23:45;3.90;;;1.60;;
58990;SDS011;44781;53.444;14.476;2023-07-31T12:26:19;2.60;;;1.50;;
58990;SDS011;44781;53.444;14.476;2023-07-31T12:28:54;1.80;;;1.20;;
58990;SDS011;44781;53.444;14.476;2023-07-31T12:31:25;1.00;;;0.70;;
58990;SDS011;44781;53.444;14.476;2023-07-31T12:33:55;1.60;;;0.90;;
58990;SDS011;44781;53.444;14.476;2023-07-31T12:36:23;1.10;;;0.60;;
58990;SDS011;44781;53.444;14.476;2023-07-31T12:38:51;0.80;;;0.60;;
58990;SDS011;44781;53.444;14.476;2023-07-31T12:41:20;1.60;;;0.50;;
58990;SDS011;44781;53.444;14.476;2023-07-31T12:43:47;0.80;;;0.50;;
58990;SDS011;44781;53.444;14.476;2023-07-31T12:46:14;1.60;;;0.70;;
58990;SDS011;44781;53.444;14.476;2023-07-31T12:48:42;1.20;;;0.50;;
58990;SDS011;44781;53.444;14.476;2023-07-31T12:51:09;0.80;;;0.60;;
58990;SDS011;44781;53.444;14.476;2023-07-31T12:53:36;1.80;;;0.70;;
58990;SDS011;44781;53.444;14.476;2023-07-31T12:56:06;1.80;;;0.90;;
58990;SDS011;44781;53.444;14.476;2023-07-31T12:58:33;1.80;;;0.80;;
58990;SDS011;44781;53.444;14.476;2023-07-31T13:00:59;1.80;;;0.80;;
58990;SDS011;44781;53.444;14.476;2023-07-31T13:03:28;1.90;;;0.80;;
58990;SDS011;44781;53.444;14.476;2023-07-31T13:05:55;2.60;;;0.80;;
58990;SDS011;44781;53.444;14.476;2023-07-31T13:08:25;0.90;;;0.80;;
58990;SDS011;44781;53.444;14.476;2023-07-31T13:10:55;1.80;;;1.00;;
58990;SDS011;44781;53.444;14.476;2023-07-31T13:13:22;2.00;;;1.00;;
58990;SDS011;44781;53.444;14.476;2023-07-31T13:15:49;1.80;;;1.10;;
58990;SDS011;44781;53.444;14.476;2023-07-31T13:18:15;2.00;;;1.20;;
58990;SDS011;44781;53.444;14.476;2023-07-31T13:20:42;2.40;;;1.40;;
58990;SDS011;44781;53.444;14.476;2023-07-31T13:23:09;3.00;;;1.50;;
58990;SDS011;44781;53.444;14.476;2023-07-31T13:25:36;3.70;;;1.70;;
58990;SDS011;44781;53.444;14.476;2023-07-31T13:28:03;3.00;;;1.50;;
58990;SDS011;44781;53.444;14.476;2023-07-31T13:30:30;2.80;;;1.50;;
58990;SDS011;44781;53.444;14.476;2023-07-31T13:32:57;3.30;;;1.80;;
58990;SDS011;44781;53.444;14.476;2023-07-31T13:35:26;3.90;;;2.10;;
58990;SDS011;44781;53.444;14.476;2023-07-31T13:37:53;4.50;;;2.10;;
58990;SDS011;44781;53.444;14.476;2023-07-31T13:40:20;4.20;;;2.20;;
58990;SDS011;44781;53.444;14.476;2023-07-31T13:42:56;4.70;;;2.30;;
58990;SDS011;44781;53.444;14.476;2023-07-31T13:45:23;5.80;;;2.50;;
58990;SDS011;44781;53.444;14.476;2023-07-31T13:47:50;5.00;;;2.40;;
58990;SDS011;44781;53.444;14.476;2023-07-31T13:50:18;5.40;;;2.80;;
58990;SDS011;44781;53.444;14.476;2023-07-31T13:52:47;5.10;;;2.20;;
58990;SDS011;44781;53.444;14.476;2023-07-31T13:55:17;4.60;;;2.40;;
58990;SDS011;44781;53.444;14.476;2023-07-31T13:57:49;4.40;;;2.20;;
58990;SDS011;44781;53.444;14.476;2023-07-31T14:00:16;4.90;;;2.50;;
58990;SDS011;44781;53.444;14.476;2023-07-31T14:02:45;4.60;;;2.40;;
58990;SDS011;44781;53.444;14.476;2023-07-31T14:05:19;5.80;;;2.50;;
58990;SDS011;44781;53.444;14.476;2023-07-31T14:08:08;5.00;;;2.30;;
58990;SDS011;44781;53.444;14.476;2023-07-31T14:10:37;4.30;;;2.50;;
58990;SDS011;44781;53.444;14.476;2023-07-31T14:13:16;6.30;;;2.50;;
58990;SDS011;44781;53.444;14.476;2023-07-31T14:15:54;5.30;;;2.50;;
58990;SDS011;44781;53.444;14.476;2023-07-31T14:18:24;5.90;;;2.50;;
58990;SDS011;44781;53.444;14.476;2023-07-31T14:21:07;6.80;;;2.50;;
58990;SDS011;44781;53.444;14.476;2023-07-31T14:23:36;6.70;;;3.00;;
58990;SDS011;44781;53.444;14.476;2023-07-31T14:26:07;6.40;;;2.90;;
58990;SDS011;44781;53.444;14.476;2023-07-31T14:28:35;5.50;;;2.40;;
58990;SDS011;44781;53.444;14.476;2023-07-31T14:31:02;5.50;;;2.60;;
58990;SDS011;44781;53.444;14.476;2023-07-31T14:33:32;5.30;;;2.60;;
58990;SDS011;44781;53.444;14.476;2023-07-31T14:36:08;6.40;;;2.50;;
58990;SDS011;44781;53.444;14.476;2023-07-31T14:38:35;5.50;;;2.50;;
58990;SDS011;44781;53.444;14.476;2023-07-31T14:41:02;6.80;;;2.80;;
58990;SDS011;44781;53.444;14.476;2023-07-31T14:43:32;6.30;;;2.60;;
58990;SDS011;44781;53.444;14.476;2023-07-31T14:45:58;6.70;;;2.60;;
58990;SDS011;44781;53.444;14.476;2023-07-31T14:48:26;5.60;;;3.00;;
58990;SDS011;44781;53.444;14.476;2023-07-31T14:50:56;7.10;;;2.20;;
58990;SDS011;44781;53.444;14.476;2023-07-31T14:53:23;3.70;;;1.80;;
58990;SDS011;44781;53.444;14.476;2023-07-31T14:55:53;4.40;;;1.70;;
58990;SDS011;44781;53.444;14.476;2023-07-31T15:00:50;2.90;;;1.30;;
58990;SDS011;44781;53.444;14.476;2023-07-31T15:03:17;3.40;;;1.30;;
58990;SDS011;44781;53.444;14.476;2023-07-31T15:05:47;2.60;;;0.90;;